Time;durP1;ratioP1;P1;durP2;ratioP2;P2;SDS_P1;SDS_P2;PMS_P1;PMS_P2;Temp;Humidity;BMP_temperature;BMP_pressure;BME280_temperature;BME280_humidity;BME280_pressure;Samples;Min_cycle;Max_cycle;Signal;HPM_P1;HPM_P2
2022/01/11 00:01:42;;;;;;;31.27;14.30;;;3.30;79.20;;;;;;4977230;28;20058;-87
2022/01/11 00:04:13;;;;;;;45.22;15.32;;;3.30;79.30;;;;;;4977024;28;20038;-88
2022/01/11 00:06:46;;;;;;;41.33;15.48;;;3.30;79.40;;;;;;4980919;28;20045;-88
2022/01/11 00:09:21;;;;;;;35.42;14.43;;;3.30;79.60;;;;;;4962839;28;20022;-88
2022/01/11 00:11:48;;;;;;;38.28;13.85;;;3.30;79.70;;;;;;4977504;28;20064;-88
2022/01/11 00:14:14;;;;;;;42.55;14.52;;;3.30;79.60;;;;;;5010442;28;20524;-88
2022/01/11 00:16:40;;;;;;;45.13;14.80;;;3.30;79.80;;;;;;4992020;28;20037;-88
2022/01/11 00:19:06;;;;;;;41.15;14.65;;;3.30;79.90;;;;;;4992994;28;20022;-88
2022/01/11 00:21:44;;;;;;;29.13;14.50;;;3.30;79.90;;;;;;4977479;28;20048;-89
2022/01/11 00:27:00;;;;;;;31.40;14.73;;;3.20;80.00;;;;;;5011492;28;20109;-88
2022/01/11 00:29:26;;;;;;;31.90;15.13;;;3.20;80.10;;;;;;4993461;28;20461;-88
2022/01/11 00:31:53;;;;;;;51.92;15.30;;;3.30;80.30;;;;;;4992978;28;20034;-88
2022/01/11 00:34:20;;;;;;;46.45;16.08;;;3.20;80.20;;;;;;4977974;28;20141;-88
2022/01/11 00:36:46;;;;;;;30.48;16.02;;;3.20;80.30;;;;;;4980347;28;20477;-87
2022/01/11 00:39:13;;;;;;;31.65;15.75;;;3.20;80.40;;;;;;4964784;28;20113;-87
2022/01/11 00:41:40;;;;;;;46.95;15.77;;;3.20;80.50;;;;;;4981910;28;20026;-88
2022/01/11 00:44:07;;;;;;;39.25;15.75;;;3.20;80.40;;;;;;4999039;28;20059;-88
2022/01/11 00:46:33;;;;;;;44.45;16.25;;;3.20;80.40;;;;;;4981507;28;20041;-87
2022/01/11 00:48:59;;;;;;;46.00;15.43;;;3.20;80.30;;;;;;4961925;28;20033;-88
2022/01/11 00:51:25;;;;;;;51.55;15.43;;;3.10;80.40;;;;;;4992211;28;20029;-88
2022/01/11 00:53:52;;;;;;;49.20;15.68;;;3.10;80.40;;;;;;5013169;28;20029;-88
2022/01/11 00:56:18;;;;;;;29.35;14.73;;;3.10;80.30;;;;;;4996844;28;20029;-88
2022/01/11 00:58:44;;;;;;;50.78;16.75;;;3.10;80.30;;;;;;4977112;28;20023;-87
2022/01/11 01:01:09;;;;;;;44.85;17.50;;;3.10;80.50;;;;;;4980218;28;20370;-87
2022/01/11 01:03:35;;;;;;;41.70;16.60;;;3.10;80.50;;;;;;4980349;28;20030;-87
2022/01/11 01:06:02;;;;;;;50.60;15.82;;;3.10;80.60;;;;;;4995760;28;20041;-88
2022/01/11 01:08:28;;;;;;;49.20;16.10;;;3.10;80.50;;;;;;4980054;28;20037;-88
2022/01/11 01:10:54;;;;;;;66.82;16.23;;;3.00;80.40;;;;;;4995946;28;20545;-88
2022/01/11 01:13:23;;;;;;;37.63;15.70;;;3.00;80.30;;;;;;4996654;28;20061;-88
2022/01/11 01:15:52;;;;;;;30.33;15.57;;;3.00;80.40;;;;;;4996240;28;20417;-88
2022/01/11 01:18:22;;;;;;;35.83;15.95;;;3.00;80.50;;;;;;5013697;28;20061;-88
2022/01/11 01:20:52;;;;;;;36.33;16.38;;;3.00;80.70;;;;;;4996689;28;20029;-88
2022/01/11 01:23:19;;;;;;;42.47;16.95;;;3.00;80.70;;;;;;4997293;28;20374;-88
2022/01/11 01:25:46;;;;;;;38.72;16.25;;;3.00;80.70;;;;;;4979923;28;20025;-88
2022/01/11 01:28:13;;;;;;;41.97;16.35;;;3.00;80.70;;;;;;4996437;28;20021;-88
2022/01/11 01:30:38;;;;;;;33.78;17.35;;;3.00;80.70;;;;;;4980615;28;20428;-88
2022/01/11 01:33:05;;;;;;;32.78;16.60;;;3.00;80.60;;;;;;4996410;28;20025;-87
2022/01/11 01:35:44;;;;;;;31.90;17.13;;;3.00;80.60;;;;;;4996560;28;20057;-88
2022/01/11 01:38:11;;;;;;;31.15;17.23;;;3.00;80.60;;;;;;4962169;28;20085;-88
2022/01/11 01:40:42;;;;;;;33.97;16.83;;;3.00;80.50;;;;;;4979727;28;20018;-88
2022/01/11 01:43:11;;;;;;;31.37;17.90;;;2.90;80.50;;;;;;4996311;28;20052;-88
2022/01/11 01:45:38;;;;;;;30.75;16.40;;;2.90;80.60;;;;;;4995600;28;20804;-88
2022/01/11 01:48:04;;;;;;;28.30;15.20;;;2.90;80.70;;;;;;4995473;28;20608;-88
2022/01/11 01:50:30;;;;;;;30.92;15.68;;;2.90;80.80;;;;;;4980079;28;20045;-88
2022/01/11 01:52:59;;;;;;;31.48;17.40;;;2.90;80.80;;;;;;4991478;28;20366;-88
2022/01/11 01:55:25;;;;;;;28.55;16.63;;;2.90;80.80;;;;;;5012535;28;20097;-87
2022/01/11 01:57:52;;;;;;;35.70;17.10;;;2.90;80.90;;;;;;5019335;28;20025;-87
2022/01/11 02:00:20;;;;;;;32.30;17.58;;;2.90;81.10;;;;;;4995298;28;20022;-87
2022/01/11 02:02:45;;;;;;;30.27;17.08;;;2.90;81.20;;;;;;4999589;28;20389;-88
2022/01/11 02:05:11;;;;;;;31.25;15.18;;;2.90;81.30;;;;;;5015030;28;20013;-88
2022/01/11 02:07:37;;;;;;;87.00;19.13;;;2.90;81.30;;;;;;4976673;28;20028;-88
2022/01/11 02:10:06;;;;;;;28.10;17.17;;;2.90;81.40;;;;;;4988825;28;20054;-88
2022/01/11 02:12:33;;;;;;;29.85;16.40;;;2.90;81.60;;;;;;5012241;28;20551;-88
2022/01/11 02:14:58;;;;;;;43.50;17.27;;;2.90;81.50;;;;;;4994708;28;20080;-88
2022/01/11 02:17:29;;;;;;;31.70;17.27;;;2.90;81.50;;;;;;4977844;28;20022;-88
2022/01/11 02:19:58;;;;;;;34.00;17.17;;;2.90;81.60;;;;;;4995402;28;20108;-88
2022/01/11 02:22:25;;;;;;;31.17;16.92;;;2.80;81.60;;;;;;4977965;28;20061;-87
2022/01/11 02:24:52;;;;;;;41.90;17.95;;;2.80;82.40;;;;;;4977493;28;20026;-88
2022/01/11 02:27:18;;;;;;;34.28;17.52;;;2.80;81.90;;;;;;4994725;28;20029;-88
2022/01/11 02:29:44;;;;;;;30.90;17.50;;;2.80;81.80;;;;;;4995630;28;20049;-89
2022/01/11 02:32:10;;;;;;;35.88;18.20;;;2.90;81.90;;;;;;5012847;28;20022;-87
2022/01/11 02:34:37;;;;;;;30.92;17.33;;;2.90;81.90;;;;;;4995113;28;20066;-88
2022/01/11 02:37:03;;;;;;;31.45;17.33;;;2.90;82.10;;;;;;4994146;28;20014;-88
2022/01/11 02:39:29;;;;;;;31.40;17.58;;;2.90;82.10;;;;;;4994890;28;20065;-88
2022/01/11 02:41:57;;;;;;;36.65;18.20;;;2.90;82.10;;;;;;4994854;28;20022;-88
2022/01/11 02:44:23;;;;;;;53.47;18.92;;;2.80;82.10;;;;;;4978784;28;20053;-88
2022/01/11 02:46:50;;;;;;;32.53;18.27;;;2.80;82.00;;;;;;4994644;28;20030;-88
2022/01/11 02:49:16;;;;;;;33.92;17.95;;;2.80;82.00;;;;;;4994445;28;20120;-88
2022/01/11 02:51:42;;;;;;;50.95;16.58;;;2.80;82.10;;;;;;4979011;28;20157;-88
2022/01/11 02:54:08;;;;;;;32.55;17.05;;;2.80;82.10;;;;;;4978748;28;20042;-88
2022/01/11 02:56:35;;;;;;;33.42;18.27;;;2.80;82.20;;;;;;4994686;28;20030;-87
2022/01/11 02:59:02;;;;;;;32.83;17.70;;;2.80;82.30;;;;;;4961748;28;20400;-88
2022/01/11 03:01:27;;;;;;;46.85;17.75;;;2.70;82.40;;;;;;4978264;28;20502;-87
2022/01/11 03:03:53;;;;;;;32.40;18.63;;;2.70;82.40;;;;;;5011817;28;20109;-87
2022/01/11 03:06:19;;;;;;;34.60;18.10;;;2.70;82.40;;;;;;4977822;28;20370;-87
2022/01/11 03:08:49;;;;;;;34.72;18.33;;;2.70;82.50;;;;;;4994246;28;20022;-87
2022/01/11 03:11:18;;;;;;;44.22;20.33;;;2.70;82.60;;;;;;4993870;28;20057;-87
2022/01/11 03:13:44;;;;;;;35.92;17.63;;;2.70;82.50;;;;;;5011865;28;20495;-87
2022/01/11 03:16:16;;;;;;;53.03;20.10;;;2.70;82.50;;;;;;4993680;28;20036;-87
2022/01/11 03:18:42;;;;;;;37.83;18.70;;;2.70;82.70;;;;;;4993733;28;20045;-87
2022/01/11 03:21:08;;;;;;;38.42;19.60;;;2.70;82.90;;;;;;4977191;28;20049;-87
2022/01/11 03:23:34;;;;;;;35.83;18.63;;;2.70;83.00;;;;;;4993749;28;20409;-87
2022/01/11 03:26:03;;;;;;;46.00;20.20;;;2.70;83.00;;;;;;4993727;28;20029;-88
2022/01/11 03:28:30;;;;;;;37.33;20.08;;;2.70;83.10;;;;;;5011747;28;20030;-88
2022/01/11 03:30:55;;;;;;;51.58;21.88;;;2.70;83.20;;;;;;4993747;28;20124;-88
2022/01/11 03:33:22;;;;;;;48.30;22.10;;;2.70;83.20;;;;;;4977849;28;20026;-87
2022/01/11 03:35:49;;;;;;;42.13;19.30;;;2.70;83.10;;;;;;4993376;28;20038;-88
2022/01/11 03:38:16;;;;;;;35.47;20.70;;;2.70;83.10;;;;;;4978239;28;20041;-88
2022/01/11 03:40:42;;;;;;;42.22;20.83;;;2.70;83.30;;;;;;4994321;28;20053;-88
2022/01/11 03:43:09;;;;;;;38.00;19.70;;;2.70;83.50;;;;;;4993896;28;20022;-87
2022/01/11 03:45:36;;;;;;;41.95;19.65;;;2.70;83.50;;;;;;5009895;28;20033;-87
2022/01/11 03:48:04;;;;;;;34.80;18.95;;;2.70;83.50;;;;;;5010838;28;20488;-88
2022/01/11 03:50:30;;;;;;;32.33;18.50;;;2.70;83.50;;;;;;5007900;28;20034;-88
2022/01/11 03:53:09;;;;;;;35.10;17.58;;;2.80;83.60;;;;;;4977761;28;20030;-87
2022/01/11 03:58:34;;;;;;;35.33;18.38;;;2.80;83.50;;;;;;4952208;28;20037;-88
2022/01/11 04:00:59;;;;;;;28.63;17.42;;;2.70;83.40;;;;;;4961097;28;20036;-88
2022/01/11 04:03:25;;;;;;;31.00;17.50;;;2.70;83.40;;;;;;4977029;28;20034;-87
2022/01/11 04:05:51;;;;;;;31.30;17.63;;;2.70;83.50;;;;;;4997765;28;20068;-88
2022/01/11 04:08:17;;;;;;;32.60;18.48;;;2.70;83.50;;;;;;4988955;28;20042;-88
2022/01/11 04:10:43;;;;;;;33.42;17.73;;;2.70;83.50;;;;;;4980077;28;20166;-88
2022/01/11 04:13:08;;;;;;;30.58;16.70;;;2.60;83.50;;;;;;4997239;28;20045;-88
2022/01/11 04:15:34;;;;;;;29.65;17.40;;;2.60;83.40;;;;;;4964699;28;20181;-88
2022/01/11 04:18:00;;;;;;;31.55;17.50;;;2.50;83.40;;;;;;4997095;28;20022;-88
2022/01/11 04:20:26;;;;;;;28.25;17.58;;;2.50;83.60;;;;;;4980069;28;20037;-88
2022/01/11 04:22:51;;;;;;;31.63;18.88;;;2.50;83.50;;;;;;4999405;28;20033;-88
2022/01/11 04:25:18;;;;;;;30.85;19.02;;;2.50;83.40;;;;;;4979818;28;21638;-88
2022/01/11 04:27:44;;;;;;;32.17;18.88;;;2.50;84.00;;;;;;4997802;28;20038;-88
2022/01/11 04:30:11;;;;;;;28.55;17.23;;;2.40;83.60;;;;;;4965548;28;20028;-91
2022/01/11 04:32:36;;;;;;;31.42;19.10;;;2.40;83.70;;;;;;4966288;28;20500;-88
2022/01/11 04:35:03;;;;;;;49.95;21.10;;;2.50;83.90;;;;;;4996638;28;20054;-88
2022/01/11 04:37:29;;;;;;;38.00;22.33;;;2.40;83.80;;;;;;4998430;28;20025;-89
2022/01/11 04:39:55;;;;;;;34.83;19.35;;;2.50;83.90;;;;;;4965923;28;20171;-89
2022/01/11 04:42:21;;;;;;;32.30;20.10;;;2.40;83.90;;;;;;4981384;28;20440;-88
2022/01/11 04:44:47;;;;;;;31.23;19.95;;;2.40;84.00;;;;;;4980827;28;20072;-87
2022/01/11 04:47:12;;;;;;;34.70;18.80;;;2.40;84.10;;;;;;4980515;28;20409;-89
2022/01/11 04:53:03;;;;;;;33.47;20.48;;;2.40;84.20;;;;;;4997514;28;20124;-88
2022/01/11 04:55:29;;;;;;;36.30;20.30;;;2.40;84.10;;;;;;4964674;28;20417;-87
2022/01/11 04:57:55;;;;;;;36.53;21.45;;;2.40;84.10;;;;;;4997186;28;20029;-88
2022/01/11 05:00:23;;;;;;;36.55;19.88;;;2.40;84.10;;;;;;4980154;28;20116;-88
2022/01/11 05:02:49;;;;;;;36.70;19.30;;;2.40;84.20;;;;;;4996559;28;20118;-89
2022/01/11 05:05:15;;;;;;;33.40;19.83;;;2.40;84.10;;;;;;4996893;28;20124;-88
2022/01/11 05:07:46;;;;;;;36.97;20.33;;;2.40;84.20;;;;;;4980834;28;20061;-89
2022/01/11 05:10:12;;;;;;;40.35;20.48;;;2.40;84.20;;;;;;4980159;28;20060;-87
2022/01/11 05:12:38;;;;;;;36.03;21.52;;;2.40;84.10;;;;;;4964689;28;20046;-89
2022/01/11 05:15:12;;;;;;;36.78;21.05;;;2.40;84.30;;;;;;4980258;28;20050;-88
2022/01/11 05:17:38;;;;;;;34.28;20.60;;;2.40;84.40;;;;;;4980620;28;20132;-89
2022/01/11 05:20:06;;;;;;;32.78;19.42;;;2.40;84.40;;;;;;4964679;28;20033;-88
2022/01/11 05:22:31;;;;;;;32.30;19.48;;;2.40;84.40;;;;;;4963088;28;20029;-87
2022/01/11 05:24:57;;;;;;;33.75;18.80;;;2.30;84.20;;;;;;4980478;28;20033;-88
2022/01/11 05:27:23;;;;;;;30.73;18.80;;;2.30;84.40;;;;;;5013461;28;20738;-87
2022/01/11 05:29:49;;;;;;;31.90;19.88;;;2.30;84.40;;;;;;4980053;28;20117;-88
2022/01/11 05:32:15;;;;;;;30.40;17.35;;;2.30;84.50;;;;;;4996244;28;20037;-87
2022/01/11 05:34:40;;;;;;;34.40;19.80;;;2.30;84.50;;;;;;4978565;28;20492;-89
2022/01/11 05:37:06;;;;;;;35.08;18.67;;;2.30;84.40;;;;;;4995541;28;20053;-89
2022/01/11 05:39:32;;;;;;;33.08;19.63;;;2.30;84.40;;;;;;4980690;28;20121;-89
2022/01/11 05:41:59;;;;;;;32.15;17.98;;;2.30;84.50;;;;;;4972931;28;20037;-87
2022/01/11 05:44:25;;;;;;;33.38;18.73;;;2.30;84.50;;;;;;4995398;28;20150;-87
2022/01/11 05:46:51;;;;;;;34.13;19.83;;;2.30;84.60;;;;;;5012905;28;20029;-89
2022/01/11 05:49:17;;;;;;;29.42;18.10;;;2.30;84.30;;;;;;4996136;28;20481;-89
2022/01/11 05:51:43;;;;;;;31.33;18.42;;;2.30;84.30;;;;;;4979970;28;20099;-89
2022/01/11 05:54:08;;;;;;;34.72;18.98;;;2.30;84.50;;;;;;4983298;28;20149;-87
2022/01/11 05:56:34;;;;;;;34.88;20.48;;;2.30;84.60;;;;;;5010902;28;20048;-89
2022/01/11 05:59:00;;;;;;;31.45;19.05;;;2.30;84.50;;;;;;4979562;28;20038;-89
2022/01/11 06:01:26;;;;;;;30.38;18.33;;;2.30;84.50;;;;;;4979898;28;20172;-89
2022/01/11 06:03:51;;;;;;;36.67;19.92;;;2.30;84.60;;;;;;4995729;28;20026;-89
2022/01/11 06:06:17;;;;;;;29.15;18.35;;;2.30;84.70;;;;;;4976894;28;20081;-88
2022/01/11 06:08:43;;;;;;;31.13;18.75;;;2.30;84.70;;;;;;4964173;28;20023;-89
2022/01/11 06:11:11;;;;;;;35.20;19.83;;;2.30;84.60;;;;;;4980756;28;20040;-87
2022/01/11 06:13:37;;;;;;;33.72;20.00;;;2.30;84.80;;;;;;4964352;28;20037;-88
2022/01/11 06:16:03;;;;;;;34.05;20.38;;;2.30;84.80;;;;;;4960306;28;20031;-88
2022/01/11 06:18:29;;;;;;;38.35;19.88;;;2.30;84.90;;;;;;4959920;28;20552;-88
2022/01/11 06:20:55;;;;;;;35.05;19.77;;;2.30;85.00;;;;;;4961818;28;20085;-89
2022/01/11 06:23:21;;;;;;;32.13;20.48;;;2.30;84.90;;;;;;4977022;28;20022;-89
2022/01/11 06:25:47;;;;;;;34.67;19.85;;;2.40;85.00;;;;;;4976905;28;20148;-89
2022/01/11 06:28:13;;;;;;;33.00;20.02;;;2.40;84.90;;;;;;4980769;28;20034;-88
2022/01/11 06:30:38;;;;;;;33.97;20.02;;;2.40;84.70;;;;;;4961062;28;20105;-88
2022/01/11 06:33:04;;;;;;;36.10;20.50;;;2.40;84.70;;;;;;4989983;28;20091;-88
2022/01/11 06:35:30;;;;;;;34.45;21.48;;;2.30;84.70;;;;;;4996497;28;20038;-88
2022/01/11 06:37:55;;;;;;;33.30;20.45;;;2.30;84.80;;;;;;4961364;28;20049;-88
2022/01/11 06:40:22;;;;;;;38.30;21.55;;;2.40;84.80;;;;;;4990145;28;20026;-87
2022/01/11 06:42:53;;;;;;;35.00;20.23;;;2.40;84.80;;;;;;4996280;28;20030;-90
2022/01/11 06:45:20;;;;;;;37.90;21.75;;;2.40;84.70;;;;;;5015542;28;20030;-88
2022/01/11 06:47:46;;;;;;;35.60;20.10;;;2.40;84.70;;;;;;4982119;28;20069;-88
2022/01/11 06:50:12;;;;;;;33.72;19.13;;;2.40;84.80;;;;;;4981635;28;20030;-89
2022/01/11 06:52:38;;;;;;;36.25;20.42;;;2.30;85.20;;;;;;4997624;28;20246;-87
2022/01/11 06:55:07;;;;;;;39.15;22.92;;;2.30;84.70;;;;;;4978342;28;20109;-89
2022/01/11 06:57:32;;;;;;;42.63;23.63;;;2.30;84.70;;;;;;4995655;28;20030;-89
2022/01/11 06:59:58;;;;;;;40.38;21.10;;;2.30;84.80;;;;;;4963209;28;20029;-89
2022/01/11 07:02:24;;;;;;;43.30;22.70;;;2.30;84.70;;;;;;4978613;28;20034;-89
2022/01/11 07:04:50;;;;;;;42.38;23.40;;;2.30;84.70;;;;;;4978562;28;20030;-88
2022/01/11 07:07:16;;;;;;;42.75;23.23;;;2.30;84.50;;;;;;4962406;28;20026;-88
2022/01/11 07:09:41;;;;;;;40.95;22.58;;;2.30;84.50;;;;;;4979006;28;20029;-89
2022/01/11 07:12:08;;;;;;;38.83;21.48;;;2.30;84.60;;;;;;4962351;28;20083;-88
2022/01/11 07:14:33;;;;;;;36.55;21.40;;;2.30;84.50;;;;;;4978828;28;20554;-89
2022/01/11 07:16:59;;;;;;;46.45;24.25;;;2.30;84.50;;;;;;4962002;28;20018;-89
2022/01/11 07:19:27;;;;;;;41.65;22.50;;;2.20;84.30;;;;;;4962193;28;20042;-89
2022/01/11 07:21:53;;;;;;;43.17;23.13;;;2.20;84.40;;;;;;4979266;28;20018;-88
2022/01/11 07:24:18;;;;;;;38.10;22.38;;;2.20;84.50;;;;;;4977766;28;20095;-88
2022/01/11 07:26:44;;;;;;;43.85;23.48;;;2.20;84.40;;;;;;4973110;28;20057;-88
2022/01/11 07:29:10;;;;;;;44.08;24.85;;;2.30;84.50;;;;;;4992596;28;20091;-87
2022/01/11 07:31:38;;;;;;;39.65;22.73;;;2.30;84.50;;;;;;4976910;28;20042;-88
2022/01/11 07:34:05;;;;;;;40.15;23.52;;;2.30;84.50;;;;;;4977367;28;20038;-87
2022/01/11 07:36:31;;;;;;;41.13;22.10;;;2.30;84.50;;;;;;4993397;28;20085;-87
2022/01/11 07:38:57;;;;;;;38.22;21.25;;;2.30;84.50;;;;;;4978399;28;20026;-90
2022/01/11 07:41:22;;;;;;;41.45;23.67;;;2.30;84.50;;;;;;4978775;28;20030;-91
2022/01/11 07:43:48;;;;;;;38.67;22.40;;;2.30;84.50;;;;;;4992837;28;20412;-90
2022/01/11 07:46:14;;;;;;;38.92;22.10;;;2.30;84.50;;;;;;4963829;28;20472;-93
2022/01/11 07:48:40;;;;;;;41.88;23.63;;;2.40;84.60;;;;;;4989051;28;20029;-91
2022/01/11 07:51:06;;;;;;;42.95;24.27;;;2.40;84.50;;;;;;5004659;28;20497;-87
2022/01/11 07:53:31;;;;;;;41.97;23.60;;;2.40;84.50;;;;;;4996951;28;20022;-87
2022/01/11 07:55:57;;;;;;;39.38;22.17;;;2.40;84.50;;;;;;4977410;28;20054;-87
2022/01/11 07:58:24;;;;;;;40.03;22.45;;;2.40;84.50;;;;;;4972525;28;20018;-87
2022/01/11 08:00:50;;;;;;;33.63;21.08;;;2.50;84.50;;;;;;4997252;28;20056;-91
2022/01/11 08:03:16;;;;;;;35.75;20.95;;;2.40;84.50;;;;;;4983750;28;20034;-91
2022/01/11 08:05:42;;;;;;;30.50;18.63;;;2.50;84.50;;;;;;4997900;28;20037;-91
2022/01/11 08:08:08;;;;;;;31.45;19.58;;;2.50;84.40;;;;;;4983327;28;20030;-92
2022/01/11 08:10:34;;;;;;;35.08;20.35;;;2.40;84.40;;;;;;4983246;28;20030;-91
2022/01/11 08:13:02;;;;;;;32.45;18.60;;;2.40;84.50;;;;;;4999034;28;20511;-87
2022/01/11 08:15:28;;;;;;;32.40;19.50;;;2.40;84.40;;;;;;4980912;28;20121;-87
2022/01/11 08:17:54;;;;;;;29.25;18.33;;;2.40;84.40;;;;;;4997608;28;20028;-87
2022/01/11 08:20:20;;;;;;;31.10;18.65;;;2.50;84.50;;;;;;4980609;28;20113;-87
2022/01/11 08:22:48;;;;;;;30.45;18.15;;;2.40;84.40;;;;;;4980951;28;20026;-87
2022/01/11 08:25:14;;;;;;;27.38;17.38;;;2.50;84.50;;;;;;4973653;28;20039;-87
2022/01/11 08:27:40;;;;;;;33.63;17.83;;;2.50;84.50;;;;;;4989586;28;20021;-87
2022/01/11 08:30:07;;;;;;;27.35;17.20;;;2.50;84.50;;;;;;4981443;28;20040;-91
2022/01/11 08:32:32;;;;;;;29.73;18.38;;;2.60;84.50;;;;;;4966742;28;20041;-91
2022/01/11 08:34:58;;;;;;;27.92;17.65;;;2.60;84.40;;;;;;4982158;28;20034;-91
2022/01/11 08:37:24;;;;;;;28.17;17.52;;;2.70;84.40;;;;;;5005601;28;20030;-91
2022/01/11 08:39:49;;;;;;;26.38;17.48;;;2.70;84.40;;;;;;5018663;28;20072;-91
2022/01/11 08:42:16;;;;;;;27.27;16.65;;;2.70;84.30;;;;;;5000075;28;20038;-87
2022/01/11 08:44:46;;;;;;;28.58;17.42;;;2.80;84.40;;;;;;4995864;28;20041;-88
2022/01/11 08:47:12;;;;;;;27.63;16.60;;;2.80;84.30;;;;;;4985988;28;20022;-88
2022/01/11 08:49:38;;;;;;;28.15;16.75;;;2.80;84.30;;;;;;4977436;28;20100;-87
2022/01/11 08:52:04;;;;;;;28.13;16.88;;;2.90;84.30;;;;;;4979510;28;20035;-89
2022/01/11 08:54:30;;;;;;;24.95;16.27;;;2.90;84.30;;;;;;4995799;28;20421;-91
2022/01/11 08:56:56;;;;;;;25.38;16.65;;;2.90;84.10;;;;;;4996041;28;20398;-91
2022/01/11 08:59:25;;;;;;;26.95;17.50;;;2.90;83.90;;;;;;4998022;28;20026;-88
2022/01/11 09:01:54;;;;;;;25.15;15.73;;;2.90;83.90;;;;;;4996418;28;20029;-87
2022/01/11 09:04:21;;;;;;;26.35;16.10;;;2.90;83.90;;;;;;4996694;28;20033;-87
2022/01/11 09:06:47;;;;;;;29.38;17.63;;;2.90;83.80;;;;;;4991856;28;20026;-88
2022/01/11 09:09:13;;;;;;;26.77;17.30;;;2.90;84.00;;;;;;4996541;28;20066;-88
2022/01/11 09:11:41;;;;;;;28.98;17.10;;;2.90;83.80;;;;;;4973099;28;20113;-88
2022/01/11 09:14:07;;;;;;;24.77;15.88;;;2.90;83.80;;;;;;4995232;28;20033;-88
2022/01/11 09:16:33;;;;;;;31.00;16.45;;;3.00;83.70;;;;;;4984832;28;20026;-90
2022/01/11 09:18:58;;;;;;;27.13;17.10;;;3.00;83.80;;;;;;4959853;28;20181;-88
2022/01/11 09:21:25;;;;;;;25.20;16.23;;;3.00;83.70;;;;;;4989636;28;20030;-88
2022/01/11 09:23:51;;;;;;;25.70;15.95;;;3.10;83.80;;;;;;4990520;28;20049;-87
2022/01/11 09:26:17;;;;;;;24.17;15.65;;;3.10;83.80;;;;;;4975607;28;20042;-87
2022/01/11 09:28:42;;;;;;;27.02;17.35;;;3.10;83.90;;;;;;4978401;28;20477;-88
2022/01/11 09:31:08;;;;;;;23.67;15.73;;;3.10;83.70;;;;;;4984591;28;20022;-88
2022/01/11 09:33:34;;;;;;;22.95;15.65;;;3.10;83.60;;;;;;4962139;28;20040;-87
2022/01/11 09:36:01;;;;;;;24.85;16.13;;;3.10;83.70;;;;;;4994619;28;20040;-87
2022/01/11 09:38:28;;;;;;;25.55;15.75;;;3.20;84.50;;;;;;4978699;28;20026;-88
2022/01/11 09:40:55;;;;;;;27.55;17.30;;;3.20;83.90;;;;;;4995945;28;20382;-87
2022/01/11 09:43:23;;;;;;;26.77;16.27;;;3.20;84.00;;;;;;5001892;28;20061;-87
2022/01/11 09:45:49;;;;;;;26.42;16.10;;;3.20;84.00;;;;;;4975791;28;20081;-88
2022/01/11 09:48:19;;;;;;;26.27;16.52;;;3.30;84.10;;;;;;4994714;28;20056;-88
2022/01/11 09:50:44;;;;;;;29.02;16.38;;;3.30;83.90;;;;;;4994751;28;20029;-87
2022/01/11 09:53:10;;;;;;;29.20;16.88;;;3.40;83.90;;;;;;4979253;28;20041;-89
2022/01/11 09:55:37;;;;;;;25.75;16.65;;;3.40;83.80;;;;;;4978957;28;20120;-87
2022/01/11 09:58:05;;;;;;;27.77;16.10;;;3.40;83.80;;;;;;4978524;28;20469;-87
2022/01/11 10:00:31;;;;;;;28.67;17.02;;;3.40;83.80;;;;;;4989291;28;20022;-88
2022/01/11 10:02:57;;;;;;;26.90;16.30;;;3.40;83.70;;;;;;4979376;28;20033;-87
2022/01/11 10:05:24;;;;;;;29.08;18.02;;;3.40;83.80;;;;;;4998857;28;20386;-87
2022/01/11 10:07:50;;;;;;;29.35;18.23;;;3.40;83.80;;;;;;4978600;28;20037;-87
2022/01/11 10:10:26;;;;;;;28.55;17.08;;;3.40;83.70;;;;;;4995033;28;20033;-87
2022/01/11 10:12:55;;;;;;;29.05;17.17;;;3.40;83.80;;;;;;4984714;28;20118;-87
2022/01/11 10:15:31;;;;;;;30.92;18.33;;;3.40;83.70;;;;;;4993221;28;20508;-87
2022/01/11 10:17:57;;;;;;;27.85;16.27;;;3.40;83.90;;;;;;4987507;28;20061;-89
2022/01/11 10:20:25;;;;;;;30.60;17.67;;;3.40;84.00;;;;;;4993843;28;20030;-89
2022/01/11 10:23:05;;;;;;;31.58;17.88;;;3.50;84.10;;;;;;4975154;28;20027;-88
2022/01/11 10:25:41;;;;;;;27.20;16.40;;;3.50;84.10;;;;;;4992790;28;20034;-87
2022/01/11 10:28:07;;;;;;;30.52;17.10;;;3.50;84.10;;;;;;4975068;28;20409;-88
2022/01/11 10:30:34;;;;;;;28.33;16.23;;;3.50;84.20;;;;;;4975049;28;20023;-87
2022/01/11 10:33:04;;;;;;;27.25;17.23;;;3.60;84.20;;;;;;4959095;28;20100;-87
2022/01/11 10:35:32;;;;;;;31.75;18.00;;;3.60;84.30;;;;;;4975001;28;20093;-90
2022/01/11 10:38:00;;;;;;;28.98;16.48;;;3.70;84.30;;;;;;4976191;28;20036;-91
2022/01/11 10:40:32;;;;;;;28.83;16.88;;;3.70;84.30;;;;;;4971769;28;20093;-90
2022/01/11 10:43:01;;;;;;;27.17;16.45;;;3.70;84.20;;;;;;4974547;28;20022;-90
2022/01/11 10:45:29;;;;;;;28.45;16.58;;;3.80;84.00;;;;;;4973026;28;20036;-90
2022/01/11 10:48:02;;;;;;;29.30;17.73;;;3.80;84.00;;;;;;4970735;28;20041;-90
2022/01/11 10:50:34;;;;;;;28.88;16.13;;;3.90;84.10;;;;;;4993525;28;20058;-91
2022/01/11 10:53:38;;;;;;;28.83;16.80;;;3.90;84.10;;;;;;4975149;28;20095;-91
2022/01/11 10:56:05;;;;;;;24.63;14.70;;;4.00;84.10;;;;;;4973412;28;20440;-90
2022/01/11 10:58:35;;;;;;;26.75;15.88;;;4.00;84.00;;;;;;4975218;28;20018;-89
2022/01/11 11:01:02;;;;;;;28.13;16.17;;;4.10;84.00;;;;;;4942304;28;20034;-91
2022/01/11 11:03:32;;;;;;;26.65;16.45;;;4.10;83.80;;;;;;4957646;28;20503;-90
2022/01/11 11:05:59;;;;;;;28.08;16.40;;;4.20;84.00;;;;;;4973247;28;20026;-89
2022/01/11 11:08:30;;;;;;;28.65;15.90;;;4.20;84.00;;;;;;4960706;28;20030;-90
2022/01/11 11:10:56;;;;;;;35.05;17.98;;;4.30;83.80;;;;;;4974573;28;20421;-90
2022/01/11 11:13:27;;;;;;;29.33;17.10;;;4.30;83.10;;;;;;4989134;28;20050;-90
2022/01/11 11:16:17;;;;;;;29.55;16.77;;;4.30;83.20;;;;;;4993957;28;20534;-90
2022/01/11 11:18:48;;;;;;;28.52;16.35;;;4.40;83.30;;;;;;4993466;28;20064;-91
2022/01/11 11:21:21;;;;;;;27.90;16.50;;;4.50;83.30;;;;;;4994785;28;20045;-90
2022/01/11 11:23:48;;;;;;;28.85;16.40;;;4.60;83.20;;;;;;4994664;28;20057;-91
2022/01/11 11:26:15;;;;;;;27.40;16.02;;;4.70;82.60;;;;;;4993189;28;20657;-90
2022/01/11 11:28:41;;;;;;;30.58;16.55;;;4.70;82.20;;;;;;4993766;28;20619;-90
2022/01/11 11:31:07;;;;;;;27.17;16.45;;;4.80;82.20;;;;;;4977303;28;20041;-90
2022/01/11 11:33:36;;;;;;;28.17;16.50;;;5.00;81.40;;;;;;4994290;28;20026;-90
2022/01/11 11:36:02;;;;;;;27.65;16.13;;;5.10;80.90;;;;;;5010674;28;20117;-91
2022/01/11 11:38:32;;;;;;;24.52;15.45;;;5.50;80.30;;;;;;4978681;28;20022;-90
2022/01/11 11:41:00;;;;;;;26.95;16.05;;;5.80;79.20;;;;;;5004729;28;20116;-90
2022/01/11 11:43:26;;;;;;;26.30;15.20;;;6.20;78.40;;;;;;4995728;28;20177;-91
2022/01/11 11:45:52;;;;;;;25.55;14.90;;;6.50;77.40;;;;;;4997912;28;20117;-91
2022/01/11 11:48:23;;;;;;;23.45;14.77;;;6.70;76.90;;;;;;4967255;28;20037;-91
2022/01/11 11:50:52;;;;;;;25.80;14.65;;;7.20;76.20;;;;;;5004634;28;20034;-91
2022/01/11 11:53:34;;;;;;;22.48;13.95;;;7.30;74.70;;;;;;5001227;28;20049;-92
2022/01/11 11:56:22;;;;;;;20.67;13.33;;;7.20;74.70;;;;;;4994910;28;20037;-92
2022/01/11 11:58:52;;;;;;;23.23;14.32;;;7.00;75.20;;;;;;4995161;28;20378;-91
2022/01/11 12:01:46;;;;;;;21.35;13.48;;;6.80;75.80;;;;;;4995176;28;20026;-92
2022/01/11 12:04:25;;;;;;;29.83;15.38;;;6.70;76.10;;;;;;4978084;28;20030;-92
2022/01/11 12:06:52;;;;;;;24.90;14.52;;;6.60;75.70;;;;;;4983697;28;20034;-92
2022/01/11 12:09:20;;;;;;;25.80;16.30;;;6.50;75.40;;;;;;4986159;28;20489;-91
2022/01/11 12:11:49;;;;;;;24.35;14.85;;;6.50;75.70;;;;;;4995863;28;20071;-87
2022/01/11 12:14:32;;;;;;;25.15;14.93;;;6.50;76.00;;;;;;4983498;28;20120;-88
2022/01/11 12:17:11;;;;;;;22.65;14.02;;;6.40;75.80;;;;;;4975367;28;20661;-94
2022/01/11 12:19:48;;;;;;;23.50;13.77;;;6.30;76.30;;;;;;5011909;28;20025;-93
2022/01/11 12:22:15;;;;;;;26.85;14.13;;;6.20;76.70;;;;;;4997301;28;20041;-93
2022/01/11 12:24:46;;;;;;;21.15;13.68;;;6.20;77.10;;;;;;4995320;28;20033;-92
2022/01/11 12:27:15;;;;;;;23.38;14.45;;;6.20;77.40;;;;;;4977694;28;20412;-92
2022/01/11 12:30:07;;;;;;;24.85;14.60;;;6.20;77.40;;;;;;4977721;28;20120;-93
2022/01/11 12:32:57;;;;;;;25.57;14.30;;;6.20;77.70;;;;;;4998731;28;20392;-93
2022/01/11 12:35:22;;;;;;;28.35;14.98;;;6.20;77.70;;;;;;4998999;28;20288;-93
2022/01/11 12:37:48;;;;;;;24.13;14.48;;;6.20;77.80;;;;;;4983086;28;20091;-94
2022/01/11 12:40:24;;;;;;;26.15;14.30;;;6.20;77.70;;;;;;4982628;28;20053;-93
2022/01/11 12:43:09;;;;;;;25.00;14.05;;;6.20;77.50;;;;;;4999217;28;20022;-94
2022/01/11 12:45:58;;;;;;;25.08;14.65;;;6.20;77.50;;;;;;4998667;28;20038;-93
2022/01/11 12:48:43;;;;;;;22.52;13.43;;;6.30;77.60;;;;;;4995439;28;20091;-89